sensor_id;sensor_type;location;lat;lon;timestamp;P1;durP1;ratioP1;P2;durP2;ratioP2
8986;SDS011;4529;51.360;12.474;2022-08-04T00:03:12;3.30;;;3.10;;
8986;SDS011;4529;51.360;12.474;2022-08-04T00:13:56;4.23;;;3.20;;
8986;SDS011;4529;51.360;12.474;2022-08-04T00:19:03;4.23;;;3.67;;
8986;SDS011;4529;51.360;12.474;2022-08-04T00:24:05;3.77;;;3.20;;
8986;SDS011;4529;51.360;12.474;2022-08-04T00:29:09;3.47;;;3.27;;
8986;SDS011;4529;51.360;12.474;2022-08-04T00:34:13;4.20;;;3.20;;
8986;SDS011;4529;51.360;12.474;2022-08-04T00:39:17;3.70;;;3.40;;
8986;SDS011;4529;51.360;12.474;2022-08-04T00:44:29;3.70;;;3.40;;
8986;SDS011;4529;51.360;12.474;2022-08-04T00:55:04;6.47;;;3.40;;
8986;SDS011;4529;51.360;12.474;2022-08-04T01:00:25;4.77;;;3.23;;
8986;SDS011;4529;51.360;12.474;2022-08-04T01:10:57;3.93;;;3.37;;
8986;SDS011;4529;51.360;12.474;2022-08-04T01:16:30;3.50;;;3.20;;
8986;SDS011;4529;51.360;12.474;2022-08-04T01:32:51;4.17;;;3.60;;
8986;SDS011;4529;51.360;12.474;2022-08-04T01:43:27;3.73;;;3.30;;
8986;SDS011;4529;51.360;12.474;2022-08-04T01:48:30;4.23;;;3.90;;
8986;SDS011;4529;51.360;12.474;2022-08-04T01:53:36;4.23;;;3.63;;
8986;SDS011;4529;51.360;12.474;2022-08-04T01:58:41;5.73;;;3.50;;
8986;SDS011;4529;51.360;12.474;2022-08-04T02:03:45;4.07;;;3.50;;
8986;SDS011;4529;51.360;12.474;2022-08-04T02:19:16;4.00;;;3.70;;
8986;SDS011;4529;51.360;12.474;2022-08-04T02:24:26;4.07;;;3.57;;
8986;SDS011;4529;51.360;12.474;2022-08-04T02:29:34;4.50;;;3.50;;
8986;SDS011;4529;51.360;12.474;2022-08-04T02:34:59;4.20;;;3.73;;
8986;SDS011;4529;51.360;12.474;2022-08-04T02:40:03;5.77;;;3.60;;
8986;SDS011;4529;51.360;12.474;2022-08-04T02:45:05;4.50;;;3.53;;
8986;SDS011;4529;51.360;12.474;2022-08-04T02:50:09;3.93;;;3.63;;
8986;SDS011;4529;51.360;12.474;2022-08-04T02:55:12;4.50;;;3.90;;
8986;SDS011;4529;51.360;12.474;2022-08-04T03:00:16;4.40;;;3.60;;
8986;SDS011;4529;51.360;12.474;2022-08-04T03:05:23;4.10;;;3.70;;
8986;SDS011;4529;51.360;12.474;2022-08-04T03:16:29;3.73;;;3.53;;
8986;SDS011;4529;51.360;12.474;2022-08-04T03:22:16;4.27;;;3.87;;
8986;SDS011;4529;51.360;12.474;2022-08-04T04:00:34;4.40;;;4.00;;
8986;SDS011;4529;51.360;12.474;2022-08-04T04:05:45;5.73;;;4.50;;
8986;SDS011;4529;51.360;12.474;2022-08-04T04:10:55;4.63;;;3.90;;
8986;SDS011;4529;51.360;12.474;2022-08-04T04:22:10;4.60;;;4.03;;
8986;SDS011;4529;51.360;12.474;2022-08-04T04:33:18;5.30;;;4.63;;
8986;SDS011;4529;51.360;12.474;2022-08-04T04:38:43;4.87;;;4.47;;
8986;SDS011;4529;51.360;12.474;2022-08-04T04:50:04;5.63;;;4.20;;
8986;SDS011;4529;51.360;12.474;2022-08-04T04:55:30;4.63;;;3.63;;
8986;SDS011;4529;51.360;12.474;2022-08-04T05:00:46;5.47;;;3.47;;
8986;SDS011;4529;51.360;12.474;2022-08-04T05:11:30;4.20;;;3.90;;
8986;SDS011;4529;51.360;12.474;2022-08-04T05:16:58;4.20;;;3.90;;
8986;SDS011;4529;51.360;12.474;2022-08-04T05:22:27;4.90;;;3.53;;
8986;SDS011;4529;51.360;12.474;2022-08-04T05:27:44;3.87;;;3.57;;
8986;SDS011;4529;51.360;12.474;2022-08-04T05:33:00;4.07;;;3.30;;
8986;SDS011;4529;51.360;12.474;2022-08-04T05:38:09;8.47;;;3.63;;
8986;SDS011;4529;51.360;12.474;2022-08-04T05:43:13;4.40;;;3.33;;
8986;SDS011;4529;51.360;12.474;2022-08-04T05:48:17;6.13;;;3.70;;
8986;SDS011;4529;51.360;12.474;2022-08-04T05:53:21;4.13;;;3.70;;
8986;SDS011;4529;51.360;12.474;2022-08-04T05:58:26;4.17;;;3.33;;
8986;SDS011;4529;51.360;12.474;2022-08-04T06:03:32;4.23;;;3.63;;
8986;SDS011;4529;51.360;12.474;2022-08-04T06:08:36;3.97;;;3.57;;
8986;SDS011;4529;51.360;12.474;2022-08-04T06:13:41;3.97;;;3.50;;
8986;SDS011;4529;51.360;12.474;2022-08-04T06:18:48;3.50;;;3.30;;
8986;SDS011;4529;51.360;12.474;2022-08-04T06:23:51;4.83;;;3.50;;
8986;SDS011;4529;51.360;12.474;2022-08-04T06:28:55;3.90;;;3.60;;
8986;SDS011;4529;51.360;12.474;2022-08-04T06:34:02;8.00;;;3.60;;
8986;SDS011;4529;51.360;12.474;2022-08-04T06:39:05;6.83;;;3.63;;
8986;SDS011;4529;51.360;12.474;2022-08-04T06:44:09;6.43;;;3.80;;
8986;SDS011;4529;51.360;12.474;2022-08-04T06:49:12;10.33;;;3.80;;
8986;SDS011;4529;51.360;12.474;2022-08-04T06:54:16;5.43;;;3.90;;
8986;SDS011;4529;51.360;12.474;2022-08-04T06:59:19;4.30;;;3.60;;
8986;SDS011;4529;51.360;12.474;2022-08-04T07:04:23;4.17;;;3.40;;
8986;SDS011;4529;51.360;12.474;2022-08-04T07:09:26;4.50;;;3.70;;
8986;SDS011;4529;51.360;12.474;2022-08-04T07:14:30;6.30;;;3.70;;
8986;SDS011;4529;51.360;12.474;2022-08-04T07:19:36;6.37;;;3.67;;
8986;SDS011;4529;51.360;12.474;2022-08-04T07:24:40;4.20;;;3.90;;
8986;SDS011;4529;51.360;12.474;2022-08-04T07:29:43;4.00;;;3.70;;
8986;SDS011;4529;51.360;12.474;2022-08-04T07:34:49;4.53;;;3.80;;
8986;SDS011;4529;51.360;12.474;2022-08-04T07:39:52;7.67;;;3.60;;
8986;SDS011;4529;51.360;12.474;2022-08-04T07:44:56;4.23;;;3.67;;
8986;SDS011;4529;51.360;12.474;2022-08-04T07:50:03;8.30;;;3.80;;
8986;SDS011;4529;51.360;12.474;2022-08-04T07:55:04;4.83;;;3.80;;
8986;SDS011;4529;51.360;12.474;2022-08-04T08:00:08;4.07;;;3.67;;
8986;SDS011;4529;51.360;12.474;2022-08-04T08:05:12;4.93;;;3.77;;
8986;SDS011;4529;51.360;12.474;2022-08-04T08:10:15;6.07;;;3.30;;
8986;SDS011;4529;51.360;12.474;2022-08-04T08:15:19;3.42;;;3.12;;
8986;SDS011;4529;51.360;12.474;2022-08-04T08:20:23;3.47;;;3.17;;
8986;SDS011;4529;51.360;12.474;2022-08-04T08:25:28;4.10;;;3.40;;
8986;SDS011;4529;51.360;12.474;2022-08-04T08:30:33;5.33;;;3.10;;
8986;SDS011;4529;51.360;12.474;2022-08-04T08:40:57;3.15;;;2.83;;
8986;SDS011;4529;51.360;12.474;2022-08-04T08:46:09;5.45;;;3.10;;
8986;SDS011;4529;51.360;12.474;2022-08-04T08:57:07;3.80;;;3.27;;
8986;SDS011;4529;51.360;12.474;2022-08-04T09:02:49;6.40;;;3.10;;
8986;SDS011;4529;51.360;12.474;2022-08-04T09:08:44;4.23;;;3.00;;
8986;SDS011;4529;51.360;12.474;2022-08-04T09:19:26;10.65;;;2.90;;
8986;SDS011;4529;51.360;12.474;2022-08-04T09:24:52;4.08;;;2.70;;
8986;SDS011;4529;51.360;12.474;2022-08-04T09:30:10;2.70;;;2.60;;
8986;SDS011;4529;51.360;12.474;2022-08-04T09:40:35;3.27;;;2.65;;
8986;SDS011;4529;51.360;12.474;2022-08-04T09:51:03;4.65;;;2.67;;
8986;SDS011;4529;51.360;12.474;2022-08-04T10:01:27;3.55;;;2.77;;
8986;SDS011;4529;51.360;12.474;2022-08-04T10:06:35;4.47;;;2.65;;
8986;SDS011;4529;51.360;12.474;2022-08-04T10:12:02;3.60;;;2.70;;
8986;SDS011;4529;51.360;12.474;2022-08-04T10:23:00;3.62;;;2.20;;
8986;SDS011;4529;51.360;12.474;2022-08-04T10:28:20;2.33;;;2.13;;
8986;SDS011;4529;51.360;12.474;2022-08-04T10:33:25;2.62;;;2.20;;
8986;SDS011;4529;51.360;12.474;2022-08-04T10:38:29;2.45;;;2.30;;
8986;SDS011;4529;51.360;12.474;2022-08-04T10:43:46;3.42;;;1.85;;
8986;SDS011;4529;51.360;12.474;2022-08-04T10:49:28;4.50;;;2.30;;
8986;SDS011;4529;51.360;12.474;2022-08-04T10:54:22;2.30;;;2.20;;
8986;SDS011;4529;51.360;12.474;2022-08-04T10:59:32;4.65;;;2.20;;
8986;SDS011;4529;51.360;12.474;2022-08-04T11:04:41;6.67;;;2.37;;
8986;SDS011;4529;51.360;12.474;2022-08-04T11:09:46;2.52;;;2.15;;
8986;SDS011;4529;51.360;12.474;2022-08-04T11:15:04;2.72;;;2.10;;
8986;SDS011;4529;51.360;12.474;2022-08-04T11:20:22;4.10;;;2.30;;
8986;SDS011;4529;51.360;12.474;2022-08-04T11:25:23;2.10;;;2.00;;
8986;SDS011;4529;51.360;12.474;2022-08-04T11:40:57;2.80;;;2.60;;
8986;SDS011;4529;51.360;12.474;2022-08-04T11:46:06;3.55;;;2.60;;
8986;SDS011;4529;51.360;12.474;2022-08-04T11:51:09;2.70;;;2.50;;
8986;SDS011;4529;51.360;12.474;2022-08-04T11:56:14;4.55;;;2.40;;
8986;SDS011;4529;51.360;12.474;2022-08-04T12:02:06;6.45;;;2.60;;
8986;SDS011;4529;51.360;12.474;2022-08-04T12:06:38;2.67;;;2.50;;
8986;SDS011;4529;51.360;12.474;2022-08-04T12:11:59;2.70;;;2.50;;
8986;SDS011;4529;51.360;12.474;2022-08-04T12:17:04;2.70;;;2.50;;
8986;SDS011;4529;51.360;12.474;2022-08-04T12:22:09;4.37;;;2.50;;
8986;SDS011;4529;51.360;12.474;2022-08-04T12:27:14;2.70;;;2.50;;
8986;SDS011;4529;51.360;12.474;2022-08-04T12:32:22;3.12;;;2.70;;
8986;SDS011;4529;51.360;12.474;2022-08-04T12:43:19;3.92;;;2.60;;
8986;SDS011;4529;51.360;12.474;2022-08-04T12:48:38;4.15;;;2.55;;
8986;SDS011;4529;51.360;12.474;2022-08-04T12:53:41;2.70;;;2.47;;
8986;SDS011;4529;51.360;12.474;2022-08-04T12:58:48;3.55;;;2.58;;
8986;SDS011;4529;51.360;12.474;2022-08-04T13:03:52;2.70;;;2.50;;
8986;SDS011;4529;51.360;12.474;2022-08-04T13:09:04;4.58;;;2.65;;
8986;SDS011;4529;51.360;12.474;2022-08-04T13:14:11;4.50;;;2.98;;
8986;SDS011;4529;51.360;12.474;2022-08-04T13:19:14;3.55;;;2.60;;
8986;SDS011;4529;51.360;12.474;2022-08-04T13:24:17;3.05;;;2.67;;
8986;SDS011;4529;51.360;12.474;2022-08-04T13:29:21;2.95;;;2.70;;
8986;SDS011;4529;51.360;12.474;2022-08-04T13:34:24;6.47;;;2.67;;
8986;SDS011;4529;51.360;12.474;2022-08-04T13:39:28;2.72;;;2.52;;
8986;SDS011;4529;51.360;12.474;2022-08-04T13:44:33;3.60;;;2.60;;
8986;SDS011;4529;51.360;12.474;2022-08-04T13:49:36;2.75;;;2.50;;
8986;SDS011;4529;51.360;12.474;2022-08-04T13:54:41;3.22;;;2.60;;
8986;SDS011;4529;51.360;12.474;2022-08-04T13:59:45;3.25;;;2.70;;
8986;SDS011;4529;51.360;12.474;2022-08-04T14:04:48;2.95;;;2.65;;
8986;SDS011;4529;51.360;12.474;2022-08-04T14:09:51;3.35;;;2.80;;
8986;SDS011;4529;51.360;12.474;2022-08-04T14:14:54;2.60;;;2.50;;
8986;SDS011;4529;51.360;12.474;2022-08-04T14:19:59;3.00;;;2.80;;
8986;SDS011;4529;51.360;12.474;2022-08-04T14:25:06;2.52;;;2.33;;
8986;SDS011;4529;51.360;12.474;2022-08-04T14:30:23;2.72;;;2.42;;
8986;SDS011;4529;51.360;12.474;2022-08-04T14:35:35;3.12;;;2.50;;
8986;SDS011;4529;51.360;12.474;2022-08-04T14:40:38;2.85;;;2.62;;
8986;SDS011;4529;51.360;12.474;2022-08-04T14:45:42;3.55;;;2.55;;
8986;SDS011;4529;51.360;12.474;2022-08-04T14:50:46;3.58;;;2.75;;
8986;SDS011;4529;51.360;12.474;2022-08-04T14:55:50;3.05;;;2.80;;
8986;SDS011;4529;51.360;12.474;2022-08-04T15:01:02;3.02;;;2.72;;
8986;SDS011;4529;51.360;12.474;2022-08-04T15:06:03;3.55;;;2.80;;
8986;SDS011;4529;51.360;12.474;2022-08-04T15:11:07;3.20;;;3.00;;
8986;SDS011;4529;51.360;12.474;2022-08-04T15:16:11;2.80;;;2.60;;
8986;SDS011;4529;51.360;12.474;2022-08-04T15:21:15;3.17;;;2.97;;
8986;SDS011;4529;51.360;12.474;2022-08-04T15:26:38;2.70;;;2.60;;
8986;SDS011;4529;51.360;12.474;2022-08-04T15:31:41;3.10;;;2.77;;
8986;SDS011;4529;51.360;12.474;2022-08-04T15:36:53;3.10;;;2.75;;
8986;SDS011;4529;51.360;12.474;2022-08-04T15:41:57;7.05;;;2.90;;
8986;SDS011;4529;51.360;12.474;2022-08-04T15:47:17;2.80;;;2.60;;
8986;SDS011;4529;51.360;12.474;2022-08-04T15:52:20;3.22;;;2.75;;
8986;SDS011;4529;51.360;12.474;2022-08-04T15:58:08;3.33;;;2.75;;
8986;SDS011;4529;51.360;12.474;2022-08-04T16:02:37;3.17;;;2.92;;
8986;SDS011;4529;51.360;12.474;2022-08-04T16:07:56;3.08;;;2.80;;
8986;SDS011;4529;51.360;12.474;2022-08-04T16:12:58;2.83;;;2.62;;
8986;SDS011;4529;51.360;12.474;2022-08-04T16:18:00;2.72;;;2.52;;
8986;SDS011;4529;51.360;12.474;2022-08-04T16:23:25;2.98;;;2.67;;
8986;SDS011;4529;51.360;12.474;2022-08-04T16:28:59;2.90;;;2.70;;
8986;SDS011;4529;51.360;12.474;2022-08-04T16:34:04;3.10;;;2.90;;
8986;SDS011;4529;51.360;12.474;2022-08-04T16:39:07;2.75;;;2.55;;
8986;SDS011;4529;51.360;12.474;2022-08-04T16:49:36;2.62;;;2.52;;
8986;SDS011;4529;51.360;12.474;2022-08-04T16:54:40;3.70;;;2.83;;
8986;SDS011;4529;51.360;12.474;2022-08-04T16:59:49;2.98;;;2.70;;
8986;SDS011;4529;51.360;12.474;2022-08-04T17:04:54;3.00;;;2.80;;
8986;SDS011;4529;51.360;12.474;2022-08-04T17:09:58;2.95;;;2.70;;
8986;SDS011;4529;51.360;12.474;2022-08-04T17:15:02;2.83;;;2.62;;
8986;SDS011;4529;51.360;12.474;2022-08-04T17:20:06;2.67;;;2.58;;
8986;SDS011;4529;51.360;12.474;2022-08-04T17:25:09;3.10;;;2.90;;
8986;SDS011;4529;51.360;12.474;2022-08-04T17:30:25;3.10;;;2.80;;
8986;SDS011;4529;51.360;12.474;2022-08-04T17:35:29;3.62;;;2.70;;
8986;SDS011;4529;51.360;12.474;2022-08-04T17:40:32;3.08;;;2.87;;
8986;SDS011;4529;51.360;12.474;2022-08-04T17:45:36;3.45;;;2.70;;
8986;SDS011;4529;51.360;12.474;2022-08-04T17:50:39;2.85;;;2.65;;
8986;SDS011;4529;51.360;12.474;2022-08-04T17:55:44;4.97;;;2.85;;
8986;SDS011;4529;51.360;12.474;2022-08-04T18:00:56;3.12;;;2.83;;
8986;SDS011;4529;51.360;12.474;2022-08-04T18:06:10;3.55;;;2.75;;
8986;SDS011;4529;51.360;12.474;2022-08-04T18:11:19;3.30;;;3.10;;
8986;SDS011;4529;51.360;12.474;2022-08-04T18:16:23;3.62;;;3.33;;
8986;SDS011;4529;51.360;12.474;2022-08-04T18:21:26;3.27;;;3.00;;
8986;SDS011;4529;51.360;12.474;2022-08-04T18:26:31;3.20;;;3.00;;
8986;SDS011;4529;51.360;12.474;2022-08-04T18:31:34;4.60;;;2.83;;
8986;SDS011;4529;51.360;12.474;2022-08-04T18:36:38;7.35;;;3.10;;
8986;SDS011;4529;51.360;12.474;2022-08-04T18:41:44;3.60;;;3.10;;
8986;SDS011;4529;51.360;12.474;2022-08-04T18:46:48;4.08;;;3.05;;
8986;SDS011;4529;51.360;12.474;2022-08-04T18:51:52;4.28;;;3.10;;
8986;SDS011;4529;51.360;12.474;2022-08-04T18:56:55;3.80;;;3.10;;
8986;SDS011;4529;51.360;12.474;2022-08-04T19:01:59;3.70;;;3.40;;
8986;SDS011;4529;51.360;12.474;2022-08-04T19:07:03;3.40;;;3.10;;
8986;SDS011;4529;51.360;12.474;2022-08-04T19:12:06;4.10;;;3.80;;
8986;SDS011;4529;51.360;12.474;2022-08-04T19:17:10;3.53;;;3.23;;
8986;SDS011;4529;51.360;12.474;2022-08-04T19:22:14;3.70;;;3.40;;
8986;SDS011;4529;51.360;12.474;2022-08-04T19:27:17;3.67;;;3.37;;
8986;SDS011;4529;51.360;12.474;2022-08-04T19:32:21;7.00;;;3.60;;
8986;SDS011;4529;51.360;12.474;2022-08-04T19:37:24;4.10;;;3.70;;
8986;SDS011;4529;51.360;12.474;2022-08-04T19:42:28;5.33;;;3.80;;
8986;SDS011;4529;51.360;12.474;2022-08-04T19:47:32;3.93;;;3.63;;
8986;SDS011;4529;51.360;12.474;2022-08-04T19:52:35;3.40;;;3.20;;
8986;SDS011;4529;51.360;12.474;2022-08-04T19:57:39;5.10;;;3.43;;
8986;SDS011;4529;51.360;12.474;2022-08-04T20:02:43;3.70;;;3.40;;
8986;SDS011;4529;51.360;12.474;2022-08-04T20:07:46;3.93;;;3.57;;
8986;SDS011;4529;51.360;12.474;2022-08-04T20:12:49;4.03;;;3.67;;
8986;SDS011;4529;51.360;12.474;2022-08-04T20:17:54;4.40;;;4.00;;
8986;SDS011;4529;51.360;12.474;2022-08-04T20:22:58;4.83;;;3.90;;
8986;SDS011;4529;51.360;12.474;2022-08-04T20:28:01;4.17;;;3.77;;
8986;SDS011;4529;51.360;12.474;2022-08-04T20:33:05;4.23;;;3.87;;
8986;SDS011;4529;51.360;12.474;2022-08-04T20:38:08;4.10;;;3.63;;
8986;SDS011;4529;51.360;12.474;2022-08-04T20:43:12;4.00;;;3.70;;
8986;SDS011;4529;51.360;12.474;2022-08-04T20:48:16;4.10;;;3.70;;
8986;SDS011;4529;51.360;12.474;2022-08-04T20:53:19;3.70;;;3.40;;
8986;SDS011;4529;51.360;12.474;2022-08-04T20:58:23;7.47;;;3.70;;
8986;SDS011;4529;51.360;12.474;2022-08-04T21:03:26;8.37;;;3.87;;
8986;SDS011;4529;51.360;12.474;2022-08-04T21:08:30;3.77;;;3.47;;
8986;SDS011;4529;51.360;12.474;2022-08-04T21:13:33;4.93;;;4.00;;
8986;SDS011;4529;51.360;12.474;2022-08-04T21:18:37;4.27;;;3.30;;
8986;SDS011;4529;51.360;12.474;2022-08-04T21:23:41;4.47;;;3.50;;
8986;SDS011;4529;51.360;12.474;2022-08-04T21:28:44;3.93;;;3.60;;
8986;SDS011;4529;51.360;12.474;2022-08-04T21:33:48;3.93;;;3.43;;
8986;SDS011;4529;51.360;12.474;2022-08-04T21:38:51;4.03;;;3.60;;
8986;SDS011;4529;51.360;12.474;2022-08-04T21:43:55;3.83;;;3.53;;
8986;SDS011;4529;51.360;12.474;2022-08-04T21:48:58;4.33;;;3.60;;
8986;SDS011;4529;51.360;12.474;2022-08-04T21:54:02;3.97;;;3.57;;
8986;SDS011;4529;51.360;12.474;2022-08-04T21:59:05;4.03;;;3.30;;
8986;SDS011;4529;51.360;12.474;2022-08-04T22:04:08;3.50;;;3.30;;
8986;SDS011;4529;51.360;12.474;2022-08-04T22:09:12;3.93;;;3.50;;
8986;SDS011;4529;51.360;12.474;2022-08-04T22:14:17;3.87;;;3.53;;
8986;SDS011;4529;51.360;12.474;2022-08-04T22:19:19;3.90;;;3.60;;
8986;SDS011;4529;51.360;12.474;2022-08-04T22:24:23;3.87;;;3.57;;
8986;SDS011;4529;51.360;12.474;2022-08-04T22:29:26;4.37;;;3.40;;
8986;SDS011;4529;51.360;12.474;2022-08-04T22:34:30;6.47;;;3.43;;
8986;SDS011;4529;51.360;12.474;2022-08-04T22:39:33;3.97;;;3.57;;
8986;SDS011;4529;51.360;12.474;2022-08-04T22:44:37;3.87;;;3.47;;
8986;SDS011;4529;51.360;12.474;2022-08-04T22:49:40;4.23;;;3.30;;
8986;SDS011;4529;51.360;12.474;2022-08-04T22:54:44;4.50;;;3.57;;
8986;SDS011;4529;51.360;12.474;2022-08-04T22:59:47;4.20;;;3.50;;
8986;SDS011;4529;51.360;12.474;2022-08-04T23:04:51;3.40;;;3.10;;
8986;SDS011;4529;51.360;12.474;2022-08-04T23:09:54;4.57;;;3.70;;
8986;SDS011;4529;51.360;12.474;2022-08-04T23:15:03;5.00;;;3.60;;
8986;SDS011;4529;51.360;12.474;2022-08-04T23:20:07;5.57;;;3.30;;
8986;SDS011;4529;51.360;12.474;2022-08-04T23:25:12;3.70;;;3.33;;
8986;SDS011;4529;51.360;12.474;2022-08-04T23:30:16;3.43;;;3.20;;
8986;SDS011;4529;51.360;12.474;2022-08-04T23:35:20;6.17;;;3.43;;
8986;SDS011;4529;51.360;12.474;2022-08-04T23:40:27;5.30;;;3.40;;
8986;SDS011;4529;51.360;12.474;2022-08-04T23:45:30;3.83;;;3.53;;
8986;SDS011;4529;51.360;12.474;2022-08-04T23:50:34;4.73;;;3.30;;
8986;SDS011;4529;51.360;12.474;2022-08-04T23:55:37;3.87;;;3.50;;
